Time;durP1;ratioP1;P1;durP2;ratioP2;P2;SDS_P1;SDS_P2;PMS_P1;PMS_P2;Temp;Humidity;BMP_temperature;BMP_pressure;BME280_temperature;BME280_humidity;BME280_pressure;Samples;Min_cycle;Max_cycle;Signal;HPM_P1;HPM_P2
2022/01/28 00:01:45;;;;;;;8.30;1.55;;;;;;;;;;4925070;29;20028;-77
2022/01/28 00:04:16;;;;;;;10.95;1.95;;;;;;;;;;4915836;29;20039;-77
2022/01/28 00:06:41;;;;;;;8.48;1.02;;;;;;;;;;4932042;29;20027;-77
2022/01/28 00:09:06;;;;;;;13.48;1.63;;;;;;;;;;4931939;29;21024;-77
2022/01/28 00:11:32;;;;;;;8.65;1.30;;;;;;;;;;4925388;29;20393;-76
2022/01/28 00:14:13;;;;;;;12.38;2.13;;;;;;;;;;4928076;29;20039;-78
2022/01/28 00:38:11;;;;;;;6.85;1.38;;;;;;;;;;4928771;29;20179;-76
2022/01/28 00:40:36;;;;;;;7.18;1.23;;;;;;;;;;4928287;29;20056;-76
2022/01/28 00:43:02;;;;;;;8.60;1.30;;;;;;;;;;4927147;29;20028;-75
2022/01/28 00:45:27;;;;;;;8.82;0.88;;;;;;;;;;4932090;29;20051;-77
2022/01/28 00:47:53;;;;;;;5.72;1.33;;;;;;;;;;4914525;29;20410;-76
2022/01/28 00:50:18;;;;;;;11.02;1.40;;;;;;;;;;4927664;29;20027;-76
2022/01/28 00:52:43;;;;;;;3.63;0.90;;;;;;;;;;4929980;29;20464;-77
2022/01/28 00:55:08;;;;;;;6.43;1.13;;;;;;;;;;4903961;29;20559;-76
2022/01/28 00:57:34;;;;;;;10.77;1.67;;;;;;;;;;4922012;29;20382;-76
2022/01/28 00:59:59;;;;;;;8.75;1.10;;;;;;;;;;4922963;29;20024;-76
2022/01/28 01:02:24;;;;;;;13.98;1.70;;;;;;;;;;4921885;29;20012;-77
2022/01/28 01:04:49;;;;;;;4.57;0.85;;;;;;;;;;4923946;29;20030;-77
2022/01/28 01:07:15;;;;;;;3.90;0.73;;;;;;;;;;4931460;29;20492;-76
2022/01/28 01:09:40;;;;;;;8.95;1.42;;;;;;;;;;4925950;29;20434;-76
2022/01/28 01:12:06;;;;;;;5.25;1.00;;;;;;;;;;4933670;29;20024;-77
2022/01/28 01:14:31;;;;;;;11.57;1.13;;;;;;;;;;4908879;29;20528;-76
2022/01/28 01:17:07;;;;;;;6.63;1.30;;;;;;;;;;4930187;29;20433;-77
2022/01/28 01:19:38;;;;;;;6.95;1.13;;;;;;;;;;4935879;29;20039;-77
2022/01/28 01:22:03;;;;;;;7.07;1.15;;;;;;;;;;4926486;29;20059;-77
2022/01/28 01:24:35;;;;;;;9.10;0.98;;;;;;;;;;4926111;29;20024;-76
2022/01/28 01:27:00;;;;;;;5.88;0.73;;;;;;;;;;4930893;29;20040;-79
2022/01/28 01:29:26;;;;;;;11.68;1.13;;;;;;;;;;4935962;29;20042;-76
2022/01/28 01:32:00;;;;;;;5.13;0.68;;;;;;;;;;4921923;29;20454;-75
2022/01/28 01:34:28;;;;;;;6.47;1.02;;;;;;;;;;4918753;29;20031;-75
2022/01/28 01:36:53;;;;;;;4.60;1.70;;;;;;;;;;4919529;29;20545;-77
2022/01/28 01:39:23;;;;;;;4.40;1.20;;;;;;;;;;4915115;29;20064;-75
2022/01/28 01:42:13;;;;;;;7.60;1.40;;;;;;;;;;4916295;29;20030;-75
2022/01/28 01:52:56;;;;;;;4.40;1.00;;;;;;;;;;4916248;29;20063;-76
2022/01/28 01:55:22;;;;;;;7.57;0.60;;;;;;;;;;4916390;29;20068;-76
2022/01/28 01:57:47;;;;;;;9.18;1.00;;;;;;;;;;4916334;29;20537;-76
2022/01/28 02:00:13;;;;;;;6.45;1.00;;;;;;;;;;4916701;29;20043;-76
2022/01/28 02:02:39;;;;;;;6.55;0.88;;;;;;;;;;4899445;29;20099;-76
2022/01/28 02:05:04;;;;;;;5.47;1.02;;;;;;;;;;4919483;29;20153;-77
2022/01/28 02:07:29;;;;;;;8.88;1.35;;;;;;;;;;4906043;29;20536;-78
2022/01/28 02:09:55;;;;;;;12.60;1.80;;;;;;;;;;4906279;29;20458;-74
2022/01/28 02:12:20;;;;;;;8.75;1.00;;;;;;;;;;4922838;29;20028;-76
2022/01/28 02:14:45;;;;;;;7.22;1.20;;;;;;;;;;4922839;29;20024;-77
2022/01/28 02:17:11;;;;;;;5.35;1.00;;;;;;;;;;4923098;29;20466;-76
2022/01/28 02:19:38;;;;;;;8.02;1.27;;;;;;;;;;4907222;29;20028;-76
2022/01/28 02:22:03;;;;;;;7.50;1.25;;;;;;;;;;4923343;29;20027;-77
2022/01/28 02:24:35;;;;;;;6.38;1.00;;;;;;;;;;4923305;29;20397;-78
2022/01/28 02:27:00;;;;;;;6.78;1.48;;;;;;;;;;4922544;29;20548;-77
2022/01/28 02:29:28;;;;;;;7.50;1.45;;;;;;;;;;4906075;29;20028;-78
2022/01/28 02:31:54;;;;;;;8.32;1.30;;;;;;;;;;4923253;29;20099;-78
2022/01/28 02:34:19;;;;;;;5.32;1.10;;;;;;;;;;4923554;29;20035;-77
2022/01/28 02:36:45;;;;;;;7.32;1.35;;;;;;;;;;4906658;29;20016;-75
2022/01/28 02:39:11;;;;;;;8.82;1.10;;;;;;;;;;4923226;29;20028;-77
2022/01/28 02:41:40;;;;;;;15.07;2.17;;;;;;;;;;4923213;29;20024;-77
2022/01/28 02:44:54;;;;;;;8.57;1.38;;;;;;;;;;4923188;29;20076;-78
2022/01/28 02:47:02;;;;;;;10.27;2.00;;;;;;;;;;4913803;29;20028;-77
2022/01/28 02:49:33;;;;;;;9.70;2.03;;;;;;;;;;4923381;29;20031;-76
2022/01/28 02:51:59;;;;;;;8.18;1.20;;;;;;;;;;4923078;29;20044;-77
2022/01/28 02:54:24;;;;;;;9.57;1.83;;;;;;;;;;4923404;29;20020;-77
2022/01/28 02:56:52;;;;;;;7.93;1.65;;;;;;;;;;4923340;29;20485;-76
2022/01/28 02:59:18;;;;;;;9.18;1.70;;;;;;;;;;4923495;29;20035;-76
2022/01/28 03:01:43;;;;;;;8.55;1.67;;;;;;;;;;4923074;29;20024;-76
2022/01/28 03:04:11;;;;;;;8.82;1.67;;;;;;;;;;4923375;29;20478;-76
2022/01/28 03:06:36;;;;;;;9.10;1.33;;;;;;;;;;4922668;29;20556;-76
2022/01/28 03:09:13;;;;;;;10.27;1.42;;;;;;;;;;4905897;29;20064;-76
2022/01/28 03:12:12;;;;;;;7.05;1.10;;;;;;;;;;4922657;29;20016;-77
2022/01/28 03:14:53;;;;;;;11.00;1.85;;;;;;;;;;4922198;29;20071;-75
2022/01/28 03:20:17;;;;;;;7.10;1.20;;;;;;;;;;4920261;29;20605;-78
2022/01/28 03:22:42;;;;;;;11.02;1.23;;;;;;;;;;4903791;29;20501;-76
2022/01/28 03:25:08;;;;;;;6.20;1.23;;;;;;;;;;4922199;29;20017;-76
2022/01/28 03:27:54;;;;;;;10.27;1.50;;;;;;;;;;4921550;29;20401;-76
2022/01/28 03:30:20;;;;;;;4.15;1.13;;;;;;;;;;4920614;29;20057;-77
2022/01/28 03:32:45;;;;;;;7.28;0.90;;;;;;;;;;4919537;29;20103;-76
2022/01/28 03:35:13;;;;;;;12.98;1.50;;;;;;;;;;4902131;29;20454;-77
2022/01/28 03:37:38;;;;;;;6.00;0.95;;;;;;;;;;4918436;29;20023;-77
2022/01/28 03:40:06;;;;;;;7.50;1.23;;;;;;;;;;4919103;29;20032;-76
2022/01/28 03:42:31;;;;;;;8.33;2.03;;;;;;;;;;4901948;29;20095;-77
2022/01/28 03:44:57;;;;;;;10.68;1.10;;;;;;;;;;4904683;29;20731;-76
2022/01/28 03:47:22;;;;;;;11.43;1.38;;;;;;;;;;4921202;29;20107;-77
2022/01/28 03:49:47;;;;;;;12.85;1.33;;;;;;;;;;4906197;29;20069;-77
2022/01/28 03:52:12;;;;;;;6.00;1.00;;;;;;;;;;4925448;29;20024;-76
2022/01/28 03:54:37;;;;;;;6.03;1.23;;;;;;;;;;4925153;29;20031;-76
2022/01/28 03:57:04;;;;;;;7.50;1.20;;;;;;;;;;4922478;29;20072;-79
2022/01/28 03:59:30;;;;;;;8.10;1.70;;;;;;;;;;4921678;29;20020;-76
2022/01/28 04:01:55;;;;;;;13.20;1.58;;;;;;;;;;4921015;29;20105;-76
2022/01/28 04:12:30;;;;;;;9.95;1.40;;;;;;;;;;4918441;29;20031;-74
2022/01/28 04:17:23;;;;;;;7.97;1.30;;;;;;;;;;4917896;29;20036;-74
2022/01/28 04:19:50;;;;;;;7.97;1.52;;;;;;;;;;4916363;29;20027;-74
2022/01/28 04:22:15;;;;;;;14.57;1.88;;;;;;;;;;4917593;29;20024;-74
2022/01/28 04:24:40;;;;;;;11.10;2.00;;;;;;;;;;4915997;29;20141;-74
2022/01/28 04:27:06;;;;;;;15.40;1.55;;;;;;;;;;4917146;29;20099;-73
2022/01/28 04:29:31;;;;;;;9.00;1.50;;;;;;;;;;4916955;29;20553;-74
2022/01/28 04:31:56;;;;;;;7.82;1.40;;;;;;;;;;4917297;29;20080;-74
2022/01/28 04:34:23;;;;;;;9.00;1.42;;;;;;;;;;4901177;29;20028;-74
2022/01/28 04:39:31;;;;;;;9.00;1.85;;;;;;;;;;4919731;29;20035;-74
2022/01/28 04:42:14;;;;;;;15.90;1.90;;;;;;;;;;4902842;29;20035;-75
2022/01/28 04:45:01;;;;;;;6.45;1.20;;;;;;;;;;4919942;29;20024;-75
2022/01/28 04:50:10;;;;;;;6.97;1.25;;;;;;;;;;4918344;29;20056;-74
2022/01/28 05:03:11;;;;;;;7.95;1.55;;;;;;;;;;4919104;29;20055;-75
2022/01/28 05:06:35;;;;;;;6.30;1.75;;;;;;;;;;4917329;29;20040;-74
2022/01/28 05:13:50;;;;;;;13.13;1.58;;;;;;;;;;4919281;29;20059;-73
2022/01/28 05:26:51;;;;;;;15.05;2.22;;;;;;;;;;4921182;29;20112;-74
2022/01/28 05:29:16;;;;;;;13.55;1.60;;;;;;;;;;4919868;29;20091;-74
2022/01/28 05:31:41;;;;;;;8.20;1.30;;;;;;;;;;4908800;29;20418;-73
2022/01/28 05:34:07;;;;;;;11.70;2.00;;;;;;;;;;4921575;29;20056;-74
2022/01/28 05:36:34;;;;;;;16.02;2.00;;;;;;;;;;4901674;29;20028;-72
2022/01/28 05:38:59;;;;;;;8.75;1.95;;;;;;;;;;4917872;29;20043;-72
2022/01/28 05:41:25;;;;;;;12.65;2.65;;;;;;;;;;4900240;29;20502;-74
2022/01/28 05:43:50;;;;;;;9.70;1.90;;;;;;;;;;4917059;29;20098;-72
2022/01/28 05:46:17;;;;;;;9.88;1.38;;;;;;;;;;4917278;29;20485;-72
2022/01/28 05:48:42;;;;;;;8.18;1.75;;;;;;;;;;4917314;29;20028;-74
2022/01/28 05:51:07;;;;;;;6.93;1.40;;;;;;;;;;4917170;29;20036;-74
2022/01/28 05:53:33;;;;;;;10.45;1.95;;;;;;;;;;4899862;29;20371;-73
2022/01/28 05:55:58;;;;;;;11.43;1.50;;;;;;;;;;4917467;29;20031;-73
2022/01/28 05:58:23;;;;;;;12.63;1.73;;;;;;;;;;4918163;29;20024;-73
2022/01/28 06:00:48;;;;;;;16.17;2.75;;;;;;;;;;4917075;29;20389;-75
2022/01/28 06:03:13;;;;;;;16.85;2.10;;;;;;;;;;4918132;29;20035;-74
2022/01/28 06:05:39;;;;;;;8.00;1.75;;;;;;;;;;4918616;29;20521;-74
2022/01/28 06:08:04;;;;;;;10.23;2.08;;;;;;;;;;4917861;29;20470;-75
2022/01/28 06:10:29;;;;;;;9.30;1.50;;;;;;;;;;4917254;29;20039;-74
2022/01/28 06:12:54;;;;;;;9.35;1.63;;;;;;;;;;4916840;29;20032;-74
2022/01/28 06:15:20;;;;;;;14.75;1.60;;;;;;;;;;4915668;29;20450;-75
2022/01/28 06:17:45;;;;;;;5.00;1.17;;;;;;;;;;4915878;29;20039;-75
2022/01/28 06:20:12;;;;;;;8.68;1.05;;;;;;;;;;4898938;29;20024;-75
2022/01/28 06:22:38;;;;;;;5.97;1.52;;;;;;;;;;4915639;29;20048;-73
2022/01/28 06:25:03;;;;;;;8.55;1.45;;;;;;;;;;4915428;29;20024;-74
2022/01/28 06:27:28;;;;;;;6.78;1.70;;;;;;;;;;4915127;29;20079;-74
2022/01/28 06:29:54;;;;;;;7.13;1.58;;;;;;;;;;4916245;29;20083;-74
2022/01/28 06:32:19;;;;;;;5.75;1.40;;;;;;;;;;4916173;29;20107;-74
2022/01/28 06:34:44;;;;;;;10.38;1.75;;;;;;;;;;4899051;29;20133;-74
2022/01/28 06:37:09;;;;;;;8.40;1.60;;;;;;;;;;4916420;29;20034;-74
2022/01/28 06:39:34;;;;;;;13.80;1.50;;;;;;;;;;4915582;29;20035;-74
2022/01/28 06:42:00;;;;;;;14.93;1.85;;;;;;;;;;4898390;29;20028;-74
2022/01/28 06:44:25;;;;;;;8.25;1.85;;;;;;;;;;4915517;29;20442;-74
2022/01/28 06:46:54;;;;;;;14.90;1.77;;;;;;;;;;4915145;29;20027;-74
2022/01/28 06:49:19;;;;;;;11.38;1.90;;;;;;;;;;4915558;29;20031;-74
2022/01/28 06:51:44;;;;;;;16.20;2.45;;;;;;;;;;4917528;29;20027;-74
2022/01/28 06:54:09;;;;;;;17.85;2.28;;;;;;;;;;4902591;29;20140;-74
2022/01/28 06:56:35;;;;;;;12.48;2.13;;;;;;;;;;4919245;29;20484;-74
2022/01/28 06:59:03;;;;;;;20.42;2.38;;;;;;;;;;4917648;29;20398;-74
2022/01/28 07:01:28;;;;;;;13.13;2.15;;;;;;;;;;4902403;29;20466;-74
2022/01/28 07:03:53;;;;;;;25.75;2.42;;;;;;;;;;4919482;29;20052;-73
2022/01/28 07:06:19;;;;;;;11.75;2.00;;;;;;;;;;4919053;29;20048;-74
2022/01/28 07:08:45;;;;;;;14.18;2.47;;;;;;;;;;4917377;29;20024;-73
2022/01/28 07:11:10;;;;;;;16.83;2.50;;;;;;;;;;4918876;29;20462;-73
2022/01/28 07:13:35;;;;;;;7.47;1.75;;;;;;;;;;4918537;29;20056;-74
2022/01/28 07:16:00;;;;;;;21.38;2.47;;;;;;;;;;4918800;29;20048;-74
2022/01/28 07:18:26;;;;;;;18.00;1.77;;;;;;;;;;4918421;29;20020;-74
2022/01/28 07:20:51;;;;;;;15.85;2.38;;;;;;;;;;4918373;29;20485;-74
2022/01/28 07:23:16;;;;;;;16.05;2.47;;;;;;;;;;4901486;29;20616;-74
2022/01/28 07:25:41;;;;;;;10.20;2.80;;;;;;;;;;4918122;29;20020;-73
2022/01/28 07:28:06;;;;;;;14.38;2.13;;;;;;;;;;4918295;29;20028;-74
2022/01/28 07:30:32;;;;;;;18.48;2.25;;;;;;;;;;4917094;29;20244;-74
2022/01/28 07:32:59;;;;;;;13.82;1.45;;;;;;;;;;4918166;29;20393;-74
2022/01/28 07:35:25;;;;;;;13.75;2.45;;;;;;;;;;4918042;29;20051;-75
2022/01/28 07:37:50;;;;;;;15.07;1.58;;;;;;;;;;4901187;29;20478;-74
2022/01/28 07:40:18;;;;;;;12.60;1.95;;;;;;;;;;4918051;29;20027;-73
2022/01/28 07:42:43;;;;;;;18.75;2.22;;;;;;;;;;4917610;29;20120;-74
2022/01/28 07:45:09;;;;;;;14.68;1.92;;;;;;;;;;4917788;29;20064;-74
2022/01/28 07:47:38;;;;;;;11.60;1.90;;;;;;;;;;4916559;29;20080;-74
2022/01/28 07:50:04;;;;;;;10.10;1.92;;;;;;;;;;4900707;29;20122;-73
2022/01/28 07:52:29;;;;;;;14.27;1.88;;;;;;;;;;4917712;29;20077;-74
2022/01/28 07:54:55;;;;;;;16.38;2.35;;;;;;;;;;4917629;29;20077;-73
2022/01/28 07:57:20;;;;;;;11.57;2.40;;;;;;;;;;4917869;29;20032;-74
2022/01/28 07:59:45;;;;;;;11.98;1.63;;;;;;;;;;4900531;29;20024;-73
2022/01/28 08:02:10;;;;;;;17.52;2.85;;;;;;;;;;4915987;29;20024;-74
2022/01/28 08:04:38;;;;;;;23.02;5.97;;;;;;;;;;4917776;29;20079;-74
2022/01/28 08:07:03;;;;;;;11.18;2.25;;;;;;;;;;4918152;29;20053;-74
2022/01/28 08:09:28;;;;;;;14.20;2.53;;;;;;;;;;4917641;29;20382;-73
2022/01/28 08:11:54;;;;;;;15.05;2.20;;;;;;;;;;4917451;29;20026;-74
2022/01/28 08:14:19;;;;;;;10.30;1.83;;;;;;;;;;4917546;29;20015;-74
2022/01/28 08:16:44;;;;;;;12.20;2.63;;;;;;;;;;4917794;29;20128;-74
2022/01/28 08:19:09;;;;;;;15.55;2.45;;;;;;;;;;4917280;29;20355;-75
2022/01/28 08:21:34;;;;;;;16.33;2.05;;;;;;;;;;4917543;29;20020;-75
2022/01/28 08:23:59;;;;;;;18.67;2.42;;;;;;;;;;4908467;29;20035;-74
2022/01/28 08:26:25;;;;;;;16.08;2.40;;;;;;;;;;4907920;29;20027;-74
2022/01/28 08:28:50;;;;;;;18.52;2.67;;;;;;;;;;4925527;29;20020;-74
2022/01/28 08:31:16;;;;;;;14.48;1.80;;;;;;;;;;4917617;29;20430;-74
2022/01/28 08:33:41;;;;;;;12.60;1.77;;;;;;;;;;4914210;29;20030;-74
2022/01/28 08:36:06;;;;;;;13.18;2.55;;;;;;;;;;4936201;29;20067;-74
2022/01/28 08:38:38;;;;;;;13.48;2.10;;;;;;;;;;4936159;29;20055;-74
2022/01/28 08:41:03;;;;;;;15.82;1.95;;;;;;;;;;4917960;29;20023;-74
2022/01/28 08:43:28;;;;;;;11.90;1.98;;;;;;;;;;4921376;29;20020;-74
2022/01/28 08:45:54;;;;;;;14.85;4.38;;;;;;;;;;4936352;29;20026;-74
2022/01/28 08:48:19;;;;;;;11.93;2.03;;;;;;;;;;4927845;29;20024;-73
2022/01/28 08:50:46;;;;;;;8.60;1.80;;;;;;;;;;4900959;29;20052;-74
2022/01/28 08:53:11;;;;;;;15.88;2.22;;;;;;;;;;4917477;29;20058;-75
2022/01/28 08:55:43;;;;;;;12.63;2.15;;;;;;;;;;4900234;29;20023;-74
2022/01/28 08:58:09;;;;;;;12.60;2.22;;;;;;;;;;4917388;29;20032;-74
2022/01/28 09:00:35;;;;;;;23.17;2.63;;;;;;;;;;4926064;29;20511;-74
2022/01/28 09:03:00;;;;;;;15.63;2.38;;;;;;;;;;4935695;29;20027;-75
2022/01/28 09:05:25;;;;;;;13.80;1.92;;;;;;;;;;4935501;29;20131;-74
2022/01/28 09:07:51;;;;;;;21.73;2.83;;;;;;;;;;4935521;29;20067;-74
2022/01/28 09:10:23;;;;;;;17.60;3.55;;;;;;;;;;4918763;29;20038;-74
2022/01/28 09:13:09;;;;;;;14.18;2.47;;;;;;;;;;4918950;29;20049;-74
2022/01/28 09:15:35;;;;;;;11.50;3.08;;;;;;;;;;4934565;29;20489;-74
2022/01/28 09:18:00;;;;;;;19.55;2.45;;;;;;;;;;4932869;29;20020;-75
2022/01/28 09:20:31;;;;;;;11.30;2.47;;;;;;;;;;4917318;29;20012;-74
2022/01/28 09:22:57;;;;;;;20.60;2.35;;;;;;;;;;4916520;29;20027;-74
2022/01/28 09:25:23;;;;;;;21.25;3.08;;;;;;;;;;4916899;29;20216;-74
2022/01/28 09:27:48;;;;;;;12.68;2.25;;;;;;;;;;4916577;29;20393;-74
2022/01/28 09:30:13;;;;;;;15.98;2.55;;;;;;;;;;4916939;29;20404;-74
2022/01/28 09:32:38;;;;;;;22.55;2.92;;;;;;;;;;4909162;29;20079;-74
2022/01/28 09:35:04;;;;;;;13.45;2.60;;;;;;;;;;4914729;29;20031;-74
2022/01/28 09:37:29;;;;;;;23.08;2.80;;;;;;;;;;4898963;29;20024;-74
2022/01/28 09:39:54;;;;;;;14.88;2.60;;;;;;;;;;4916065;29;20024;-74
2022/01/28 09:42:23;;;;;;;21.20;3.53;;;;;;;;;;4918923;29;20016;-74
2022/01/28 09:44:48;;;;;;;;;;;;;;;;;;4916708;29;20020;-74
2022/01/28 09:47:15;;;;;;;14.27;2.10;;;;;;;;;;4915672;29;19957;-74
2022/01/28 09:49:41;;;;;;;10.82;2.00;;;;;;;;;;4914825;29;20030;-74
2022/01/28 09:52:08;;;;;;;18.02;2.70;;;;;;;;;;4916103;29;20024;-74
2022/01/28 09:54:36;;;;;;;12.32;2.30;;;;;;;;;;4930589;29;20024;-74
2022/01/28 09:57:02;;;;;;;13.98;3.47;;;;;;;;;;4916340;29;20016;-74
2022/01/28 09:59:28;;;;;;;8.90;1.75;;;;;;;;;;4915870;29;20024;-74
2022/01/28 10:01:54;;;;;;;15.23;2.72;;;;;;;;;;4908567;29;20024;-74
2022/01/28 10:04:19;;;;;;;14.77;2.70;;;;;;;;;;4906741;29;20142;-74
2022/01/28 10:06:45;;;;;;;24.73;3.30;;;;;;;;;;4923092;29;20059;-74
2022/01/28 10:09:12;;;;;;;9.93;1.88;;;;;;;;;;4921262;29;20346;-74
2022/01/28 10:11:39;;;;;;;20.48;2.90;;;;;;;;;;4908645;29;20032;-74
2022/01/28 10:14:16;;;;;;;11.38;2.25;;;;;;;;;;4920324;29;20024;-74
2022/01/28 10:16:42;;;;;;;18.15;2.60;;;;;;;;;;4924666;29;20042;-74
2022/01/28 10:19:08;;;;;;;17.55;2.80;;;;;;;;;;4921591;29;20282;-74
2022/01/28 10:21:41;;;;;;;13.10;1.92;;;;;;;;;;4925502;29;20027;-74
2022/01/28 10:24:11;;;;;;;9.88;1.90;;;;;;;;;;4919728;29;20556;-74
2022/01/28 10:26:36;;;;;;;17.98;2.95;;;;;;;;;;4924053;29;20028;-74
2022/01/28 10:29:04;;;;;;;19.48;2.63;;;;;;;;;;4915827;29;20032;-74
2022/01/28 10:31:36;;;;;;;14.40;2.42;;;;;;;;;;4916588;29;20509;-74
2022/01/28 10:34:14;;;;;;;24.13;4.07;;;;;;;;;;4917424;29;20062;-74
2022/01/28 10:36:39;;;;;;;11.18;2.50;;;;;;;;;;4928179;29;20099;-74
2022/01/28 10:39:04;;;;;;;13.02;2.33;;;;;;;;;;4924115;29;20123;-74
2022/01/28 10:41:30;;;;;;;23.48;2.58;;;;;;;;;;4912206;29;20034;-74
2022/01/28 10:43:56;;;;;;;17.90;2.65;;;;;;;;;;4929077;29;20039;-74
2022/01/28 10:46:34;;;;;;;24.23;2.83;;;;;;;;;;4923138;29;20363;-74
2022/01/28 10:49:04;;;;;;;21.27;3.08;;;;;;;;;;4899677;29;20028;-74
2022/01/28 10:51:38;;;;;;;15.35;2.35;;;;;;;;;;4929263;29;20032;-74
2022/01/28 10:54:03;;;;;;;18.30;2.92;;;;;;;;;;4923772;29;20038;-74
2022/01/28 10:56:28;;;;;;;18.80;2.20;;;;;;;;;;4929396;29;20035;-74
2022/01/28 10:58:54;;;;;;;14.40;2.30;;;;;;;;;;4920972;29;20031;-74
2022/01/28 11:01:19;;;;;;;13.07;2.28;;;;;;;;;;4929726;29;20027;-74
2022/01/28 11:03:45;;;;;;;15.48;2.58;;;;;;;;;;4926592;29;20036;-74
2022/01/28 11:06:10;;;;;;;16.88;2.47;;;;;;;;;;4926230;29;20024;-74
2022/01/28 11:08:35;;;;;;;16.33;2.55;;;;;;;;;;4933058;29;20121;-74
2022/01/28 11:11:01;;;;;;;11.88;2.30;;;;;;;;;;4926390;29;20032;-74
2022/01/28 11:13:27;;;;;;;21.10;3.97;;;;;;;;;;4932774;29;20086;-74
2022/01/28 11:15:52;;;;;;;20.60;2.90;;;;;;;;;;4926499;29;20091;-74
2022/01/28 11:18:17;;;;;;;15.63;2.53;;;;;;;;;;4925938;29;20036;-74
2022/01/28 11:20:46;;;;;;;17.08;2.33;;;;;;;;;;4911048;29;20028;-75
2022/01/28 11:23:30;;;;;;;21.48;3.05;;;;;;;;;;4924142;29;20028;-75
2022/01/28 11:25:59;;;;;;;23.35;3.65;;;;;;;;;;4919161;29;20111;-74
2022/01/28 11:28:57;;;;;;;21.98;3.00;;;;;;;;;;4932918;29;20032;-74
2022/01/28 11:31:40;;;;;;;13.70;2.10;;;;;;;;;;4890562;29;20032;-74
2022/01/28 11:34:17;;;;;;;16.98;2.35;;;;;;;;;;4919760;29;20401;-75
2022/01/28 11:36:42;;;;;;;13.32;2.42;;;;;;;;;;4920387;29;20056;-74
2022/01/28 11:39:27;;;;;;;24.20;2.58;;;;;;;;;;4930309;29;20028;-74
2022/01/28 11:42:07;;;;;;;14.38;2.15;;;;;;;;;;4928633;29;20134;-75
2022/01/28 11:44:43;;;;;;;13.77;2.30;;;;;;;;;;4917915;29;20052;-75
2022/01/28 11:47:10;;;;;;;29.17;2.75;;;;;;;;;;4908474;29;20055;-74
2022/01/28 11:49:54;;;;;;;20.75;2.67;;;;;;;;;;4908796;29;20028;-75
2022/01/28 11:52:25;;;;;;;17.70;2.67;;;;;;;;;;4925504;29;20039;-74
2022/01/28 11:54:50;;;;;;;20.80;2.60;;;;;;;;;;4926009;29;20031;-75
2022/01/28 11:57:16;;;;;;;13.77;1.92;;;;;;;;;;4925706;29;20046;-73
2022/01/28 11:59:42;;;;;;;17.10;2.22;;;;;;;;;;4926177;29;20024;-74
2022/01/28 12:02:09;;;;;;;17.60;2.70;;;;;;;;;;4926121;29;20035;-74
2022/01/28 12:04:38;;;;;;;19.42;3.15;;;;;;;;;;4926049;29;20064;-74
2022/01/28 12:07:04;;;;;;;14.88;2.28;;;;;;;;;;4909796;29;20035;-74
2022/01/28 12:09:30;;;;;;;16.45;3.67;;;;;;;;;;4939973;29;20019;-74
2022/01/28 12:11:58;;;;;;;13.48;2.55;;;;;;;;;;4946148;29;20085;-74
2022/01/28 12:14:41;;;;;;;10.30;2.38;;;;;;;;;;4930893;29;20045;-75
2022/01/28 12:17:36;;;;;;;14.32;2.50;;;;;;;;;;4922240;29;20036;-74
2022/01/28 12:20:13;;;;;;;19.67;3.30;;;;;;;;;;4925931;29;20031;-74
2022/01/28 12:22:57;;;;;;;18.02;2.28;;;;;;;;;;4925759;29;20016;-74
2022/01/28 12:25:43;;;;;;;14.80;2.05;;;;;;;;;;4924867;29;20034;-74
2022/01/28 12:28:12;;;;;;;17.88;3.03;;;;;;;;;;4889147;29;20040;-74
2022/01/28 12:30:37;;;;;;;9.40;2.17;;;;;;;;;;4926257;29;20164;-74
2022/01/28 12:33:03;;;;;;;15.93;2.13;;;;;;;;;;4923980;29;20588;-74
2022/01/28 12:35:28;;;;;;;16.40;2.25;;;;;;;;;;4924329;29;20016;-74
2022/01/28 12:37:59;;;;;;;15.52;2.45;;;;;;;;;;4925021;29;20032;-74
2022/01/28 12:40:28;;;;;;;21.35;2.67;;;;;;;;;;4922978;29;20106;-74
2022/01/28 12:42:53;;;;;;;17.50;3.47;;;;;;;;;;4926835;29;20110;-74
2022/01/28 12:45:40;;;;;;;15.02;2.13;;;;;;;;;;4921151;29;20160;-74
2022/01/28 12:48:20;;;;;;;16.05;2.65;;;;;;;;;;4928161;29;20132;-74
2022/01/28 12:50:49;;;;;;;21.20;2.90;;;;;;;;;;4925431;29;20035;-75
2022/01/28 12:53:25;;;;;;;12.82;2.50;;;;;;;;;;4912403;29;20034;-75
2022/01/28 12:55:50;;;;;;;17.98;2.67;;;;;;;;;;4926882;29;20023;-75
2022/01/28 12:58:16;;;;;;;10.45;2.22;;;;;;;;;;4921416;29;20024;-74
2022/01/28 13:00:41;;;;;;;10.98;2.78;;;;;;;;;;4925853;29;20430;-75
2022/01/28 13:03:06;;;;;;;16.48;3.03;;;;;;;;;;4922682;29;20103;-74
2022/01/28 13:05:37;;;;;;;23.52;3.05;;;;;;;;;;4923987;29;20123;-74
2022/01/28 13:10:46;;;;;;;17.88;2.38;;;;;;;;;;4924664;29;20416;-74
2022/01/28 13:13:15;;;;;;;14.70;2.65;;;;;;;;;;4916662;29;20107;-74
2022/01/28 13:15:40;;;;;;;15.70;2.38;;;;;;;;;;4918209;29;20020;-74
2022/01/28 13:18:06;;;;;;;15.77;2.33;;;;;;;;;;4922442;29;20028;-75
2022/01/28 13:20:33;;;;;;;20.27;3.05;;;;;;;;;;4924127;29;20034;-74
2022/01/28 13:22:58;;;;;;;10.00;1.75;;;;;;;;;;4922403;29;20020;-74
2022/01/28 13:25:27;;;;;;;14.20;1.83;;;;;;;;;;4920172;29;20028;-74
2022/01/28 13:27:57;;;;;;;16.00;2.78;;;;;;;;;;4914443;29;20062;-74
2022/01/28 13:30:23;;;;;;;13.73;2.08;;;;;;;;;;4915002;29;20036;-74
2022/01/28 13:32:50;;;;;;;14.68;2.20;;;;;;;;;;4916046;29;20099;-74
2022/01/28 13:35:22;;;;;;;13.95;2.30;;;;;;;;;;4915554;29;20031;-75
2022/01/28 13:37:52;;;;;;;13.48;2.47;;;;;;;;;;4915366;29;20042;-75
2022/01/28 13:40:17;;;;;;;15.43;2.30;;;;;;;;;;4915143;29;20478;-74
2022/01/28 13:42:57;;;;;;;21.02;2.80;;;;;;;;;;4915435;29;20039;-73
2022/01/28 13:45:36;;;;;;;19.30;2.67;;;;;;;;;;4915043;29;20094;-75
2022/01/28 13:48:02;;;;;;;13.02;2.30;;;;;;;;;;4915598;29;20048;-74
2022/01/28 13:50:29;;;;;;;14.95;2.22;;;;;;;;;;4915424;29;20028;-74
2022/01/28 13:53:07;;;;;;;13.18;2.95;;;;;;;;;;4915488;29;20052;-73
2022/01/28 13:55:37;;;;;;;11.98;2.17;;;;;;;;;;4898006;29;20075;-74
2022/01/28 13:58:03;;;;;;;16.13;2.15;;;;;;;;;;4898319;29;20051;-75
2022/01/28 14:00:39;;;;;;;11.18;2.20;;;;;;;;;;4914449;29;20148;-74
2022/01/28 14:03:04;;;;;;;14.27;2.78;;;;;;;;;;4897985;29;20367;-74
2022/01/28 14:05:48;;;;;;;14.30;2.60;;;;;;;;;;4915563;29;20031;-74
2022/01/28 14:08:14;;;;;;;16.10;2.53;;;;;;;;;;4898785;29;20024;-73
2022/01/28 14:10:39;;;;;;;12.40;2.03;;;;;;;;;;4915742;29;20024;-73
2022/01/28 14:13:20;;;;;;;17.80;3.00;;;;;;;;;;4915171;29;20036;-74
2022/01/28 14:16:01;;;;;;;20.75;2.78;;;;;;;;;;4913981;29;20028;-74
2022/01/28 14:18:26;;;;;;;14.07;2.15;;;;;;;;;;4909120;29;20099;-74
2022/01/28 14:20:51;;;;;;;11.57;2.20;;;;;;;;;;4896893;29;20051;-73
2022/01/28 14:23:16;;;;;;;19.60;2.45;;;;;;;;;;4914694;29;20378;-74
2022/01/28 14:25:42;;;;;;;26.13;3.28;;;;;;;;;;4915436;29;20036;-74
2022/01/28 14:28:36;;;;;;;11.27;2.15;;;;;;;;;;4915720;29;20024;-74
2022/01/28 14:31:08;;;;;;;10.02;1.98;;;;;;;;;;4915618;29;20061;-74
2022/01/28 14:33:33;;;;;;;15.07;1.90;;;;;;;;;;4930554;29;20043;-74
2022/01/28 14:35:58;;;;;;;16.23;2.50;;;;;;;;;;4923136;29;20024;-73
2022/01/28 14:38:24;;;;;;;22.60;2.80;;;;;;;;;;4915299;29;20067;-74
2022/01/28 14:40:49;;;;;;;12.80;2.45;;;;;;;;;;4915078;29;20377;-74
2022/01/28 14:43:14;;;;;;;13.40;2.50;;;;;;;;;;4914328;29;20381;-74
2022/01/28 14:45:39;;;;;;;19.88;3.50;;;;;;;;;;4915225;29;20055;-74
2022/01/28 14:48:07;;;;;;;18.48;3.90;;;;;;;;;;4915782;29;20028;-74
2022/01/28 14:50:35;;;;;;;17.13;2.67;;;;;;;;;;4915162;29;20032;-74
2022/01/28 14:53:01;;;;;;;14.20;2.42;;;;;;;;;;4915226;29;20031;-74
2022/01/28 14:55:26;;;;;;;15.35;2.20;;;;;;;;;;4916247;29;20020;-74
2022/01/28 14:57:52;;;;;;;12.95;2.50;;;;;;;;;;4917123;29;20036;-74
2022/01/28 15:00:18;;;;;;;14.18;2.38;;;;;;;;;;4898640;29;20020;-74
2022/01/28 15:02:44;;;;;;;15.73;2.13;;;;;;;;;;4915399;29;20024;-74
2022/01/28 15:05:09;;;;;;;15.00;2.70;;;;;;;;;;4915461;29;20055;-74
2022/01/28 15:07:36;;;;;;;13.35;2.17;;;;;;;;;;4915653;29;20016;-74
2022/01/28 15:10:03;;;;;;;24.48;6.72;;;;;;;;;;4898813;29;20036;-74
2022/01/28 15:12:33;;;;;;;16.88;2.55;;;;;;;;;;4916971;29;20012;-74
2022/01/28 15:14:58;;;;;;;14.55;2.38;;;;;;;;;;4918385;29;20016;-74
2022/01/28 15:17:27;;;;;;;23.65;3.28;;;;;;;;;;4918577;29;20574;-74
2022/01/28 15:19:52;;;;;;;15.82;1.73;;;;;;;;;;4918409;29;20023;-74
2022/01/28 15:22:17;;;;;;;12.52;2.13;;;;;;;;;;4918443;29;20024;-73
2022/01/28 15:24:43;;;;;;;21.67;2.30;;;;;;;;;;4918274;29;20028;-74
2022/01/28 15:27:09;;;;;;;18.65;2.78;;;;;;;;;;4918833;29;20058;-73
2022/01/28 15:29:46;;;;;;;17.25;2.60;;;;;;;;;;4918652;29;20058;-74
2022/01/28 15:37:27;;;;;;;14.95;2.47;;;;;;;;;;4918431;29;20040;-74
2022/01/28 15:39:52;;;;;;;10.30;2.78;;;;;;;;;;4918618;29;20030;-74
2022/01/28 15:42:17;;;;;;;15.02;1.95;;;;;;;;;;4919133;29;20019;-74
2022/01/28 15:44:43;;;;;;;13.25;2.22;;;;;;;;;;4919244;29;20449;-73
2022/01/28 15:47:10;;;;;;;18.52;3.08;;;;;;;;;;4920296;29;20037;-70
2022/01/28 15:49:35;;;;;;;16.45;2.40;;;;;;;;;;4913310;29;20028;-72
2022/01/28 15:52:00;;;;;;;18.23;2.08;;;;;;;;;;4918567;29;20516;-72
2022/01/28 15:54:26;;;;;;;15.18;3.17;;;;;;;;;;4918478;29;20449;-74
2022/01/28 15:56:51;;;;;;;16.17;2.15;;;;;;;;;;4904925;29;20032;-74
2022/01/28 15:59:17;;;;;;;14.23;2.30;;;;;;;;;;4913472;29;20042;-74
2022/01/28 16:01:42;;;;;;;16.50;2.20;;;;;;;;;;4916734;29;20084;-74